sensor_id;sensor_type;location;lat;lon;timestamp;P1;durP1;ratioP1;P2;durP2;ratioP2
9737;SDS011;4908;47.446;13.900;2022-07-09T00:00:09;3.17;;;1.50;;
9737;SDS011;4908;47.446;13.900;2022-07-09T00:02:37;2.07;;;1.40;;
9737;SDS011;4908;47.446;13.900;2022-07-09T00:05:04;2.97;;;1.17;;
9737;SDS011;4908;47.446;13.900;2022-07-09T00:07:31;2.37;;;1.70;;
9737;SDS011;4908;47.446;13.900;2022-07-09T00:09:58;1.50;;;1.40;;
9737;SDS011;4908;47.446;13.900;2022-07-09T00:12:25;1.87;;;1.20;;
9737;SDS011;4908;47.446;13.900;2022-07-09T00:14:53;4.43;;;1.70;;
9737;SDS011;4908;47.446;13.900;2022-07-09T00:17:20;1.77;;;1.20;;
9737;SDS011;4908;47.446;13.900;2022-07-09T00:19:47;1.40;;;1.20;;
9737;SDS011;4908;47.446;13.900;2022-07-09T00:22:14;1.90;;;1.33;;
9737;SDS011;4908;47.446;13.900;2022-07-09T00:24:41;1.77;;;1.50;;
9737;SDS011;4908;47.446;13.900;2022-07-09T00:27:07;1.63;;;1.20;;
9737;SDS011;4908;47.446;13.900;2022-07-09T00:29:34;1.50;;;1.40;;
9737;SDS011;4908;47.446;13.900;2022-07-09T00:32:03;2.00;;;1.27;;
9737;SDS011;4908;47.446;13.900;2022-07-09T00:34:30;1.97;;;1.50;;
9737;SDS011;4908;47.446;13.900;2022-07-09T00:36:58;1.40;;;1.30;;
9737;SDS011;4908;47.446;13.900;2022-07-09T00:39:25;2.00;;;1.57;;
9737;SDS011;4908;47.446;13.900;2022-07-09T00:42:00;1.83;;;1.57;;
9737;SDS011;4908;47.446;13.900;2022-07-09T00:44:28;1.13;;;1.13;;
9737;SDS011;4908;47.446;13.900;2022-07-09T00:46:55;1.90;;;1.73;;
9737;SDS011;4908;47.446;13.900;2022-07-09T00:49:23;1.37;;;1.27;;
9737;SDS011;4908;47.446;13.900;2022-07-09T00:51:54;1.47;;;1.37;;
9737;SDS011;4908;47.446;13.900;2022-07-09T00:54:22;2.10;;;1.47;;
9737;SDS011;4908;47.446;13.900;2022-07-09T00:56:49;2.60;;;1.50;;
9737;SDS011;4908;47.446;13.900;2022-07-09T00:59:18;2.50;;;1.30;;
9737;SDS011;4908;47.446;13.900;2022-07-09T01:01:45;2.13;;;1.60;;
9737;SDS011;4908;47.446;13.900;2022-07-09T01:04:12;1.67;;;1.43;;
9737;SDS011;4908;47.446;13.900;2022-07-09T01:06:40;1.60;;;1.50;;
9737;SDS011;4908;47.446;13.900;2022-07-09T01:09:07;1.60;;;1.50;;
9737;SDS011;4908;47.446;13.900;2022-07-09T01:11:34;1.60;;;1.50;;
9737;SDS011;4908;47.446;13.900;2022-07-09T01:14:01;1.87;;;1.63;;
9737;SDS011;4908;47.446;13.900;2022-07-09T01:16:30;1.67;;;1.57;;
9737;SDS011;4908;47.446;13.900;2022-07-09T01:18:57;3.10;;;1.77;;
9737;SDS011;4908;47.446;13.900;2022-07-09T01:21:25;1.70;;;1.50;;
9737;SDS011;4908;47.446;13.900;2022-07-09T01:23:53;3.30;;;1.60;;
9737;SDS011;4908;47.446;13.900;2022-07-09T01:26:20;1.70;;;1.60;;
9737;SDS011;4908;47.446;13.900;2022-07-09T01:28:47;2.10;;;1.43;;
9737;SDS011;4908;47.446;13.900;2022-07-09T01:31:14;1.63;;;1.53;;
9737;SDS011;4908;47.446;13.900;2022-07-09T01:33:41;2.40;;;1.60;;
9737;SDS011;4908;47.446;13.900;2022-07-09T01:36:08;2.83;;;1.27;;
9737;SDS011;4908;47.446;13.900;2022-07-09T01:38:37;1.30;;;1.30;;
9737;SDS011;4908;47.446;13.900;2022-07-09T01:41:04;2.20;;;1.70;;
9737;SDS011;4908;47.446;13.900;2022-07-09T01:43:30;1.67;;;1.60;;
9737;SDS011;4908;47.446;13.900;2022-07-09T01:45:58;1.97;;;1.87;;
9737;SDS011;4908;47.446;13.900;2022-07-09T01:48:25;1.90;;;1.50;;
9737;SDS011;4908;47.446;13.900;2022-07-09T01:50:52;4.00;;;1.50;;
9737;SDS011;4908;47.446;13.900;2022-07-09T01:53:19;2.80;;;1.70;;
9737;SDS011;4908;47.446;13.900;2022-07-09T01:55:47;2.60;;;1.70;;
9737;SDS011;4908;47.446;13.900;2022-07-09T01:58:14;2.27;;;1.83;;
9737;SDS011;4908;47.446;13.900;2022-07-09T02:00:41;1.67;;;1.57;;
9737;SDS011;4908;47.446;13.900;2022-07-09T02:03:08;2.23;;;1.60;;
9737;SDS011;4908;47.446;13.900;2022-07-09T02:05:35;2.13;;;1.87;;
9737;SDS011;4908;47.446;13.900;2022-07-09T02:08:02;1.87;;;1.60;;
9737;SDS011;4908;47.446;13.900;2022-07-09T02:10:29;2.93;;;1.80;;
9737;SDS011;4908;47.446;13.900;2022-07-09T02:12:57;1.57;;;1.47;;
9737;SDS011;4908;47.446;13.900;2022-07-09T02:15:24;2.40;;;1.80;;
9737;SDS011;4908;47.446;13.900;2022-07-09T02:17:51;3.13;;;1.80;;
9737;SDS011;4908;47.446;13.900;2022-07-09T02:20:18;3.40;;;2.10;;
9737;SDS011;4908;47.446;13.900;2022-07-09T02:22:46;2.33;;;1.90;;
9737;SDS011;4908;47.446;13.900;2022-07-09T02:25:12;2.63;;;1.57;;
9737;SDS011;4908;47.446;13.900;2022-07-09T02:27:39;1.93;;;1.63;;
9737;SDS011;4908;47.446;13.900;2022-07-09T02:30:08;2.67;;;1.73;;
9737;SDS011;4908;47.446;13.900;2022-07-09T02:32:35;2.10;;;1.90;;
9737;SDS011;4908;47.446;13.900;2022-07-09T02:35:04;2.37;;;1.80;;
9737;SDS011;4908;47.446;13.900;2022-07-09T02:37:31;3.53;;;1.77;;
9737;SDS011;4908;47.446;13.900;2022-07-09T02:39:59;2.03;;;1.93;;
9737;SDS011;4908;47.446;13.900;2022-07-09T02:42:25;2.40;;;2.00;;
9737;SDS011;4908;47.446;13.900;2022-07-09T02:44:52;3.53;;;1.77;;
9737;SDS011;4908;47.446;13.900;2022-07-09T02:47:20;3.47;;;2.33;;
9737;SDS011;4908;47.446;13.900;2022-07-09T02:49:47;3.73;;;1.80;;
9737;SDS011;4908;47.446;13.900;2022-07-09T02:52:14;1.90;;;1.80;;
9737;SDS011;4908;47.446;13.900;2022-07-09T02:54:41;2.00;;;1.90;;
9737;SDS011;4908;47.446;13.900;2022-07-09T02:57:08;3.27;;;1.90;;
9737;SDS011;4908;47.446;13.900;2022-07-09T02:59:34;3.70;;;1.70;;
9737;SDS011;4908;47.446;13.900;2022-07-09T03:02:01;1.83;;;1.50;;
9737;SDS011;4908;47.446;13.900;2022-07-09T03:04:29;1.80;;;1.70;;
9737;SDS011;4908;47.446;13.900;2022-07-09T03:06:56;4.17;;;1.77;;
9737;SDS011;4908;47.446;13.900;2022-07-09T03:09:23;2.53;;;1.70;;
9737;SDS011;4908;47.446;13.900;2022-07-09T03:11:50;2.17;;;1.90;;
9737;SDS011;4908;47.446;13.900;2022-07-09T03:14:17;4.10;;;1.63;;
9737;SDS011;4908;47.446;13.900;2022-07-09T03:16:44;2.43;;;2.27;;
9737;SDS011;4908;47.446;13.900;2022-07-09T03:19:10;2.37;;;1.90;;
9737;SDS011;4908;47.446;13.900;2022-07-09T03:21:39;2.60;;;1.87;;
9737;SDS011;4908;47.446;13.900;2022-07-09T03:24:05;3.77;;;2.10;;
9737;SDS011;4908;47.446;13.900;2022-07-09T03:26:33;3.07;;;2.53;;
9737;SDS011;4908;47.446;13.900;2022-07-09T03:29:00;2.43;;;2.23;;
9737;SDS011;4908;47.446;13.900;2022-07-09T03:31:27;2.27;;;1.70;;
9737;SDS011;4908;47.446;13.900;2022-07-09T03:33:54;5.00;;;2.07;;
9737;SDS011;4908;47.446;13.900;2022-07-09T03:36:20;2.20;;;2.00;;
9737;SDS011;4908;47.446;13.900;2022-07-09T03:38:48;2.50;;;1.97;;
9737;SDS011;4908;47.446;13.900;2022-07-09T03:41:15;2.10;;;1.80;;
9737;SDS011;4908;47.446;13.900;2022-07-09T03:43:42;2.23;;;1.80;;
9737;SDS011;4908;47.446;13.900;2022-07-09T03:46:09;4.40;;;2.00;;
9737;SDS011;4908;47.446;13.900;2022-07-09T03:48:36;4.47;;;2.27;;
9737;SDS011;4908;47.446;13.900;2022-07-09T03:51:02;3.33;;;1.90;;
9737;SDS011;4908;47.446;13.900;2022-07-09T03:53:30;5.00;;;2.07;;
9737;SDS011;4908;47.446;13.900;2022-07-09T03:55:58;1.80;;;1.70;;
9737;SDS011;4908;47.446;13.900;2022-07-09T03:58:25;2.53;;;1.90;;
9737;SDS011;4908;47.446;13.900;2022-07-09T04:00:51;1.77;;;1.70;;
9737;SDS011;4908;47.446;13.900;2022-07-09T04:03:19;2.13;;;1.93;;
9737;SDS011;4908;47.446;13.900;2022-07-09T04:05:46;2.67;;;1.80;;
9737;SDS011;4908;47.446;13.900;2022-07-09T04:08:13;1.60;;;1.60;;
9737;SDS011;4908;47.446;13.900;2022-07-09T04:10:40;2.87;;;1.67;;
9737;SDS011;4908;47.446;13.900;2022-07-09T04:13:08;2.17;;;1.70;;
9737;SDS011;4908;47.446;13.900;2022-07-09T04:15:35;2.13;;;1.90;;
9737;SDS011;4908;47.446;13.900;2022-07-09T04:18:02;2.10;;;1.90;;
9737;SDS011;4908;47.446;13.900;2022-07-09T04:20:29;1.97;;;1.73;;
9737;SDS011;4908;47.446;13.900;2022-07-09T04:22:55;2.20;;;2.10;;
9737;SDS011;4908;47.446;13.900;2022-07-09T04:25:22;1.80;;;1.70;;
9737;SDS011;4908;47.446;13.900;2022-07-09T04:27:49;3.27;;;2.30;;
9737;SDS011;4908;47.446;13.900;2022-07-09T04:30:17;2.70;;;2.00;;
9737;SDS011;4908;47.446;13.900;2022-07-09T04:32:44;3.10;;;2.30;;
9737;SDS011;4908;47.446;13.900;2022-07-09T04:35:11;3.77;;;2.13;;
9737;SDS011;4908;47.446;13.900;2022-07-09T04:37:37;4.53;;;2.10;;
9737;SDS011;4908;47.446;13.900;2022-07-09T04:40:05;1.93;;;1.70;;
9737;SDS011;4908;47.446;13.900;2022-07-09T04:42:32;1.70;;;1.60;;
9737;SDS011;4908;47.446;13.900;2022-07-09T04:44:59;1.63;;;1.53;;
9737;SDS011;4908;47.446;13.900;2022-07-09T04:47:27;2.53;;;1.90;;
9737;SDS011;4908;47.446;13.900;2022-07-09T04:49:53;2.00;;;1.87;;
9737;SDS011;4908;47.446;13.900;2022-07-09T04:52:20;2.33;;;1.60;;
9737;SDS011;4908;47.446;13.900;2022-07-09T04:54:51;1.90;;;1.77;;
9737;SDS011;4908;47.446;13.900;2022-07-09T04:57:19;2.63;;;1.50;;
9737;SDS011;4908;47.446;13.900;2022-07-09T04:59:46;2.10;;;1.60;;
9737;SDS011;4908;47.446;13.900;2022-07-09T05:02:12;5.17;;;1.53;;
9737;SDS011;4908;47.446;13.900;2022-07-09T05:04:41;1.40;;;1.30;;
9737;SDS011;4908;47.446;13.900;2022-07-09T05:07:08;2.10;;;1.53;;
9737;SDS011;4908;47.446;13.900;2022-07-09T05:09:35;1.80;;;1.60;;
9737;SDS011;4908;47.446;13.900;2022-07-09T05:12:02;2.40;;;1.50;;
9737;SDS011;4908;47.446;13.900;2022-07-09T05:14:29;3.47;;;1.90;;
9737;SDS011;4908;47.446;13.900;2022-07-09T05:16:56;3.07;;;1.60;;
9737;SDS011;4908;47.446;13.900;2022-07-09T05:19:22;3.70;;;1.90;;
9737;SDS011;4908;47.446;13.900;2022-07-09T05:21:51;1.30;;;1.30;;
9737;SDS011;4908;47.446;13.900;2022-07-09T05:24:18;1.70;;;1.60;;
9737;SDS011;4908;47.446;13.900;2022-07-09T05:26:44;3.37;;;1.87;;
9737;SDS011;4908;47.446;13.900;2022-07-09T05:29:11;3.50;;;2.20;;
9737;SDS011;4908;47.446;13.900;2022-07-09T05:31:38;1.93;;;1.73;;
9737;SDS011;4908;47.446;13.900;2022-07-09T05:34:05;1.97;;;1.67;;
9737;SDS011;4908;47.446;13.900;2022-07-09T05:36:33;1.80;;;1.50;;
9737;SDS011;4908;47.446;13.900;2022-07-09T05:39:02;4.13;;;2.40;;
9737;SDS011;4908;47.446;13.900;2022-07-09T05:41:28;3.60;;;1.87;;
9737;SDS011;4908;47.446;13.900;2022-07-09T05:43:56;2.00;;;1.73;;
9737;SDS011;4908;47.446;13.900;2022-07-09T05:46:22;4.73;;;2.30;;
9737;SDS011;4908;47.446;13.900;2022-07-09T05:48:49;3.63;;;1.80;;
9737;SDS011;4908;47.446;13.900;2022-07-09T05:51:16;2.10;;;1.80;;
9737;SDS011;4908;47.446;13.900;2022-07-09T05:53:43;5.60;;;1.50;;
9737;SDS011;4908;47.446;13.900;2022-07-09T05:56:11;1.10;;;1.10;;
9737;SDS011;4908;47.446;13.900;2022-07-09T05:58:38;3.17;;;1.50;;
9737;SDS011;4908;47.446;13.900;2022-07-09T06:01:05;1.60;;;1.50;;
9737;SDS011;4908;47.446;13.900;2022-07-09T06:03:32;1.93;;;1.57;;
9737;SDS011;4908;47.446;13.900;2022-07-09T06:05:59;1.47;;;1.37;;
9737;SDS011;4908;47.446;13.900;2022-07-09T06:08:26;3.87;;;1.87;;
9737;SDS011;4908;47.446;13.900;2022-07-09T06:10:53;5.23;;;1.93;;
9737;SDS011;4908;47.446;13.900;2022-07-09T06:13:21;3.97;;;1.67;;
9737;SDS011;4908;47.446;13.900;2022-07-09T06:15:48;2.10;;;1.63;;
9737;SDS011;4908;47.446;13.900;2022-07-09T06:18:15;2.40;;;1.50;;
9737;SDS011;4908;47.446;13.900;2022-07-09T06:20:42;1.30;;;1.27;;
9737;SDS011;4908;47.446;13.900;2022-07-09T06:23:09;1.97;;;1.40;;
9737;SDS011;4908;47.446;13.900;2022-07-09T06:25:37;1.50;;;1.23;;
9737;SDS011;4908;47.446;13.900;2022-07-09T06:28:04;1.40;;;1.30;;
9737;SDS011;4908;47.446;13.900;2022-07-09T06:30:32;1.43;;;1.13;;
9737;SDS011;4908;47.446;13.900;2022-07-09T06:33:00;3.43;;;1.70;;
9737;SDS011;4908;47.446;13.900;2022-07-09T06:35:27;2.27;;;2.17;;
9737;SDS011;4908;47.446;13.900;2022-07-09T06:37:54;2.47;;;2.17;;
9737;SDS011;4908;47.446;13.900;2022-07-09T06:40:20;2.93;;;1.60;;
9737;SDS011;4908;47.446;13.900;2022-07-09T06:42:47;1.57;;;1.47;;
9737;SDS011;4908;47.446;13.900;2022-07-09T06:45:14;2.57;;;1.40;;
9737;SDS011;4908;47.446;13.900;2022-07-09T06:47:43;3.50;;;1.40;;
9737;SDS011;4908;47.446;13.900;2022-07-09T06:50:10;2.13;;;1.33;;
9737;SDS011;4908;47.446;13.900;2022-07-09T06:52:37;1.67;;;1.33;;
9737;SDS011;4908;47.446;13.900;2022-07-09T06:55:04;1.53;;;1.33;;
9737;SDS011;4908;47.446;13.900;2022-07-09T06:57:31;1.90;;;1.30;;
9737;SDS011;4908;47.446;13.900;2022-07-09T06:59:58;1.70;;;1.37;;
9737;SDS011;4908;47.446;13.900;2022-07-09T07:02:25;1.33;;;1.10;;
9737;SDS011;4908;47.446;13.900;2022-07-09T07:04:53;1.27;;;1.17;;
9737;SDS011;4908;47.446;13.900;2022-07-09T07:10:07;1.53;;;1.17;;
9737;SDS011;4908;47.446;13.900;2022-07-09T07:12:36;1.30;;;1.20;;
9737;SDS011;4908;47.446;13.900;2022-07-09T07:15:03;1.03;;;1.00;;
9737;SDS011;4908;47.446;13.900;2022-07-09T07:17:30;1.00;;;0.87;;
9737;SDS011;4908;47.446;13.900;2022-07-09T07:19:59;1.77;;;0.70;;
9737;SDS011;4908;47.446;13.900;2022-07-09T07:22:26;1.40;;;1.03;;
9737;SDS011;4908;47.446;13.900;2022-07-09T07:24:52;3.10;;;1.10;;
9737;SDS011;4908;47.446;13.900;2022-07-09T07:27:19;2.20;;;1.30;;
9737;SDS011;4908;47.446;13.900;2022-07-09T07:29:46;2.00;;;1.43;;
9737;SDS011;4908;47.446;13.900;2022-07-09T07:32:13;2.43;;;1.30;;
9737;SDS011;4908;47.446;13.900;2022-07-09T07:34:39;10.00;;;5.13;;
9737;SDS011;4908;47.446;13.900;2022-07-09T07:37:08;4.53;;;2.23;;
9737;SDS011;4908;47.446;13.900;2022-07-09T07:39:34;0.90;;;0.87;;
9737;SDS011;4908;47.446;13.900;2022-07-09T07:42:01;1.50;;;1.30;;
9737;SDS011;4908;47.446;13.900;2022-07-09T07:44:28;3.83;;;1.40;;
9737;SDS011;4908;47.446;13.900;2022-07-09T07:46:55;1.63;;;1.37;;
9737;SDS011;4908;47.446;13.900;2022-07-09T07:49:22;1.80;;;1.30;;
9737;SDS011;4908;47.446;13.900;2022-07-09T07:51:49;2.03;;;1.20;;
9737;SDS011;4908;47.446;13.900;2022-07-09T07:54:17;2.93;;;2.00;;
9737;SDS011;4908;47.446;13.900;2022-07-09T07:56:44;1.67;;;1.30;;
9737;SDS011;4908;47.446;13.900;2022-07-09T07:59:11;3.30;;;1.37;;
9737;SDS011;4908;47.446;13.900;2022-07-09T08:01:37;1.60;;;1.33;;
9737;SDS011;4908;47.446;13.900;2022-07-09T08:04:04;1.13;;;0.93;;
9737;SDS011;4908;47.446;13.900;2022-07-09T08:06:31;2.70;;;1.17;;
9737;SDS011;4908;47.446;13.900;2022-07-09T08:08:59;1.40;;;1.30;;
9737;SDS011;4908;47.446;13.900;2022-07-09T08:11:27;2.67;;;1.17;;
9737;SDS011;4908;47.446;13.900;2022-07-09T08:13:54;3.57;;;1.27;;
9737;SDS011;4908;47.446;13.900;2022-07-09T08:16:21;1.57;;;1.10;;
9737;SDS011;4908;47.446;13.900;2022-07-09T08:18:47;2.60;;;1.10;;
9737;SDS011;4908;47.446;13.900;2022-07-09T08:21:14;3.70;;;1.10;;
9737;SDS011;4908;47.446;13.900;2022-07-09T08:23:41;1.60;;;1.10;;
9737;SDS011;4908;47.446;13.900;2022-07-09T08:26:19;1.53;;;1.20;;
9737;SDS011;4908;47.446;13.900;2022-07-09T08:28:47;1.83;;;1.00;;
9737;SDS011;4908;47.446;13.900;2022-07-09T08:31:14;1.07;;;1.03;;
9737;SDS011;4908;47.446;13.900;2022-07-09T08:33:41;2.30;;;1.20;;
9737;SDS011;4908;47.446;13.900;2022-07-09T08:36:08;1.10;;;0.93;;
9737;SDS011;4908;47.446;13.900;2022-07-09T08:38:35;1.40;;;0.80;;
9737;SDS011;4908;47.446;13.900;2022-07-09T08:41:03;1.47;;;0.83;;
9737;SDS011;4908;47.446;13.900;2022-07-09T08:43:32;1.47;;;1.13;;
9737;SDS011;4908;47.446;13.900;2022-07-09T08:46:01;1.70;;;1.33;;
9737;SDS011;4908;47.446;13.900;2022-07-09T08:48:29;2.17;;;1.37;;
9737;SDS011;4908;47.446;13.900;2022-07-09T08:50:59;1.20;;;1.10;;
9737;SDS011;4908;47.446;13.900;2022-07-09T08:53:27;1.80;;;1.13;;
9737;SDS011;4908;47.446;13.900;2022-07-09T08:55:54;1.63;;;1.40;;
9737;SDS011;4908;47.446;13.900;2022-07-09T08:58:21;1.73;;;1.00;;
9737;SDS011;4908;47.446;13.900;2022-07-09T09:00:49;2.33;;;1.20;;
9737;SDS011;4908;47.446;13.900;2022-07-09T09:03:18;1.57;;;1.30;;
9737;SDS011;4908;47.446;13.900;2022-07-09T09:05:58;0.97;;;0.87;;
9737;SDS011;4908;47.446;13.900;2022-07-09T09:08:27;1.53;;;1.20;;
9737;SDS011;4908;47.446;13.900;2022-07-09T09:10:54;2.07;;;1.17;;
9737;SDS011;4908;47.446;13.900;2022-07-09T09:13:20;1.70;;;1.10;;
9737;SDS011;4908;47.446;13.900;2022-07-09T09:15:47;1.90;;;1.50;;
9737;SDS011;4908;47.446;13.900;2022-07-09T09:18:14;1.90;;;1.10;;
9737;SDS011;4908;47.446;13.900;2022-07-09T09:20:45;1.07;;;0.97;;
9737;SDS011;4908;47.446;13.900;2022-07-09T09:23:15;2.83;;;1.63;;
9737;SDS011;4908;47.446;13.900;2022-07-09T09:25:42;1.40;;;0.97;;
9737;SDS011;4908;47.446;13.900;2022-07-09T09:28:11;1.50;;;1.10;;
9737;SDS011;4908;47.446;13.900;2022-07-09T09:30:43;1.57;;;1.13;;
9737;SDS011;4908;47.446;13.900;2022-07-09T09:33:13;1.77;;;1.03;;
9737;SDS011;4908;47.446;13.900;2022-07-09T09:35:42;4.50;;;1.50;;
9737;SDS011;4908;47.446;13.900;2022-07-09T09:38:11;0.90;;;0.90;;
9737;SDS011;4908;47.446;13.900;2022-07-09T09:40:44;0.70;;;0.70;;
9737;SDS011;4908;47.446;13.900;2022-07-09T09:43:11;1.37;;;0.87;;
9737;SDS011;4908;47.446;13.900;2022-07-09T09:45:46;2.17;;;1.00;;
9737;SDS011;4908;47.446;13.900;2022-07-09T09:48:16;2.20;;;0.87;;
9737;SDS011;4908;47.446;13.900;2022-07-09T09:50:43;2.40;;;0.93;;
9737;SDS011;4908;47.446;13.900;2022-07-09T09:53:16;0.97;;;0.73;;
9737;SDS011;4908;47.446;13.900;2022-07-09T09:55:43;1.10;;;0.83;;
9737;SDS011;4908;47.446;13.900;2022-07-09T09:58:11;1.57;;;0.90;;
9737;SDS011;4908;47.446;13.900;2022-07-09T10:00:39;1.33;;;0.67;;
9737;SDS011;4908;47.446;13.900;2022-07-09T10:03:08;2.20;;;0.90;;
9737;SDS011;4908;47.446;13.900;2022-07-09T10:05:38;0.60;;;0.60;;
9737;SDS011;4908;47.446;13.900;2022-07-09T10:08:06;0.80;;;0.80;;
9737;SDS011;4908;47.446;13.900;2022-07-09T10:10:34;0.53;;;0.40;;
9737;SDS011;4908;47.446;13.900;2022-07-09T10:13:01;0.83;;;0.83;;
9737;SDS011;4908;47.446;13.900;2022-07-09T10:15:28;1.17;;;0.90;;
9737;SDS011;4908;47.446;13.900;2022-07-09T10:18:08;2.27;;;0.90;;
9737;SDS011;4908;47.446;13.900;2022-07-09T10:20:36;0.93;;;0.83;;
9737;SDS011;4908;47.446;13.900;2022-07-09T10:23:03;2.13;;;0.90;;
9737;SDS011;4908;47.446;13.900;2022-07-09T10:25:31;2.37;;;1.07;;
9737;SDS011;4908;47.446;13.900;2022-07-09T10:28:15;1.70;;;1.07;;
9737;SDS011;4908;47.446;13.900;2022-07-09T10:30:42;2.20;;;1.10;;
9737;SDS011;4908;47.446;13.900;2022-07-09T10:33:09;3.00;;;1.30;;
9737;SDS011;4908;47.446;13.900;2022-07-09T10:35:38;2.43;;;1.10;;
9737;SDS011;4908;47.446;13.900;2022-07-09T10:38:06;2.53;;;1.20;;
9737;SDS011;4908;47.446;13.900;2022-07-09T10:40:37;1.33;;;1.10;;
9737;SDS011;4908;47.446;13.900;2022-07-09T10:43:06;1.13;;;1.00;;
9737;SDS011;4908;47.446;13.900;2022-07-09T10:45:38;3.20;;;1.10;;
9737;SDS011;4908;47.446;13.900;2022-07-09T10:48:07;1.87;;;0.83;;
9737;SDS011;4908;47.446;13.900;2022-07-09T10:50:37;1.30;;;1.10;;
9737;SDS011;4908;47.446;13.900;2022-07-09T10:53:07;1.40;;;1.03;;
9737;SDS011;4908;47.446;13.900;2022-07-09T10:55:34;2.40;;;1.13;;
9737;SDS011;4908;47.446;13.900;2022-07-09T10:58:01;0.97;;;0.90;;
9737;SDS011;4908;47.446;13.900;2022-07-09T11:00:32;1.60;;;1.10;;
9737;SDS011;4908;47.446;13.900;2022-07-09T11:03:02;1.13;;;1.03;;
9737;SDS011;4908;47.446;13.900;2022-07-09T11:05:30;3.60;;;1.10;;
9737;SDS011;4908;47.446;13.900;2022-07-09T11:07:59;1.63;;;1.20;;
9737;SDS011;4908;47.446;13.900;2022-07-09T11:10:27;1.30;;;0.83;;
9737;SDS011;4908;47.446;13.900;2022-07-09T11:12:55;4.00;;;1.10;;
9737;SDS011;4908;47.446;13.900;2022-07-09T11:15:23;0.70;;;0.70;;
9737;SDS011;4908;47.446;13.900;2022-07-09T11:17:56;1.40;;;0.90;;
9737;SDS011;4908;47.446;13.900;2022-07-09T11:20:25;1.73;;;0.83;;
9737;SDS011;4908;47.446;13.900;2022-07-09T11:22:52;0.93;;;0.70;;
9737;SDS011;4908;47.446;13.900;2022-07-09T11:25:22;1.10;;;0.90;;
9737;SDS011;4908;47.446;13.900;2022-07-09T11:27:51;0.50;;;0.50;;
9737;SDS011;4908;47.446;13.900;2022-07-09T11:30:27;1.77;;;1.10;;
9737;SDS011;4908;47.446;13.900;2022-07-09T11:32:55;0.63;;;0.50;;
9737;SDS011;4908;47.446;13.900;2022-07-09T11:35:29;0.80;;;0.80;;
9737;SDS011;4908;47.446;13.900;2022-07-09T11:37:56;1.37;;;0.80;;
9737;SDS011;4908;47.446;13.900;2022-07-09T11:40:24;1.73;;;0.93;;
9737;SDS011;4908;47.446;13.900;2022-07-09T11:42:51;1.30;;;0.73;;
9737;SDS011;4908;47.446;13.900;2022-07-09T11:45:22;1.90;;;0.70;;
9737;SDS011;4908;47.446;13.900;2022-07-09T11:48:00;3.30;;;1.10;;
9737;SDS011;4908;47.446;13.900;2022-07-09T11:50:29;2.80;;;1.50;;
9737;SDS011;4908;47.446;13.900;2022-07-09T11:52:57;4.77;;;2.10;;
9737;SDS011;4908;47.446;13.900;2022-07-09T11:55:27;3.50;;;2.30;;
9737;SDS011;4908;47.446;13.900;2022-07-09T11:57:55;10.80;;;5.43;;
9737;SDS011;4908;47.446;13.900;2022-07-09T12:00:24;3.00;;;2.30;;
9737;SDS011;4908;47.446;13.900;2022-07-09T12:02:53;2.63;;;1.53;;
9737;SDS011;4908;47.446;13.900;2022-07-09T12:05:25;2.67;;;1.73;;
9737;SDS011;4908;47.446;13.900;2022-07-09T12:07:55;2.17;;;1.20;;
9737;SDS011;4908;47.446;13.900;2022-07-09T12:10:27;3.03;;;1.13;;
9737;SDS011;4908;47.446;13.900;2022-07-09T12:12:57;1.20;;;1.07;;
9737;SDS011;4908;47.446;13.900;2022-07-09T12:15:25;1.87;;;0.90;;
9737;SDS011;4908;47.446;13.900;2022-07-09T12:17:54;1.20;;;1.07;;
9737;SDS011;4908;47.446;13.900;2022-07-09T12:20:21;1.20;;;1.10;;
9737;SDS011;4908;47.446;13.900;2022-07-09T12:22:49;2.07;;;1.87;;
9737;SDS011;4908;47.446;13.900;2022-07-09T12:25:17;0.97;;;0.97;;
9737;SDS011;4908;47.446;13.900;2022-07-09T12:27:44;1.90;;;1.00;;
9737;SDS011;4908;47.446;13.900;2022-07-09T12:30:12;1.67;;;0.87;;
9737;SDS011;4908;47.446;13.900;2022-07-09T12:32:39;1.03;;;1.00;;
9737;SDS011;4908;47.446;13.900;2022-07-09T12:35:08;1.00;;;0.80;;
9737;SDS011;4908;47.446;13.900;2022-07-09T12:37:36;1.23;;;0.83;;
9737;SDS011;4908;47.446;13.900;2022-07-09T12:40:04;0.70;;;0.70;;
9737;SDS011;4908;47.446;13.900;2022-07-09T12:42:32;2.30;;;0.70;;
9737;SDS011;4908;47.446;13.900;2022-07-09T12:44:59;1.53;;;1.00;;
9737;SDS011;4908;47.446;13.900;2022-07-09T12:47:26;1.33;;;1.23;;
9737;SDS011;4908;47.446;13.900;2022-07-09T12:49:52;0.97;;;0.63;;
9737;SDS011;4908;47.446;13.900;2022-07-09T12:52:21;1.30;;;1.20;;
9737;SDS011;4908;47.446;13.900;2022-07-09T12:54:47;2.00;;;1.30;;
9737;SDS011;4908;47.446;13.900;2022-07-09T12:57:14;0.97;;;0.90;;
9737;SDS011;4908;47.446;13.900;2022-07-09T12:59:41;1.17;;;1.10;;
9737;SDS011;4908;47.446;13.900;2022-07-09T13:02:08;1.50;;;0.60;;
9737;SDS011;4908;47.446;13.900;2022-07-09T13:04:35;1.10;;;0.97;;
9737;SDS011;4908;47.446;13.900;2022-07-09T13:07:02;2.10;;;1.60;;
9737;SDS011;4908;47.446;13.900;2022-07-09T13:09:31;1.00;;;0.90;;
9737;SDS011;4908;47.446;13.900;2022-07-09T13:11:59;1.40;;;1.20;;
9737;SDS011;4908;47.446;13.900;2022-07-09T13:14:26;1.13;;;1.00;;
9737;SDS011;4908;47.446;13.900;2022-07-09T13:16:52;2.57;;;0.90;;
9737;SDS011;4908;47.446;13.900;2022-07-09T13:19:19;0.80;;;0.80;;
9737;SDS011;4908;47.446;13.900;2022-07-09T13:21:46;1.47;;;1.33;;
9737;SDS011;4908;47.446;13.900;2022-07-09T13:24:13;2.33;;;0.80;;
9737;SDS011;4908;47.446;13.900;2022-07-09T13:26:41;1.90;;;1.33;;
9737;SDS011;4908;47.446;13.900;2022-07-09T13:29:08;0.80;;;0.80;;
9737;SDS011;4908;47.446;13.900;2022-07-09T13:32:00;0.97;;;0.80;;
9737;SDS011;4908;47.446;13.900;2022-07-09T13:34:27;1.50;;;0.77;;
9737;SDS011;4908;47.446;13.900;2022-07-09T13:36:54;1.50;;;1.13;;
9737;SDS011;4908;47.446;13.900;2022-07-09T13:39:21;0.80;;;0.80;;
9737;SDS011;4908;47.446;13.900;2022-07-09T13:41:49;0.80;;;0.80;;
9737;SDS011;4908;47.446;13.900;2022-07-09T13:44:16;1.53;;;0.83;;
9737;SDS011;4908;47.446;13.900;2022-07-09T13:46:42;0.60;;;0.60;;
9737;SDS011;4908;47.446;13.900;2022-07-09T13:49:09;1.17;;;0.93;;
9737;SDS011;4908;47.446;13.900;2022-07-09T13:51:36;1.50;;;0.80;;
9737;SDS011;4908;47.446;13.900;2022-07-09T13:54:03;0.73;;;0.73;;
9737;SDS011;4908;47.446;13.900;2022-07-09T13:56:30;1.43;;;0.90;;
9737;SDS011;4908;47.446;13.900;2022-07-09T13:58:59;2.00;;;1.20;;
9737;SDS011;4908;47.446;13.900;2022-07-09T14:01:26;2.83;;;1.10;;
9737;SDS011;4908;47.446;13.900;2022-07-09T14:03:52;2.40;;;0.70;;
9737;SDS011;4908;47.446;13.900;2022-07-09T14:06:20;1.80;;;0.97;;
9737;SDS011;4908;47.446;13.900;2022-07-09T14:08:46;1.00;;;0.80;;
9737;SDS011;4908;47.446;13.900;2022-07-09T14:11:13;1.63;;;0.80;;
9737;SDS011;4908;47.446;13.900;2022-07-09T14:13:40;2.43;;;0.90;;
9737;SDS011;4908;47.446;13.900;2022-07-09T14:16:10;1.43;;;0.83;;
9737;SDS011;4908;47.446;13.900;2022-07-09T14:18:37;2.70;;;1.43;;
9737;SDS011;4908;47.446;13.900;2022-07-09T14:21:03;1.30;;;0.90;;
9737;SDS011;4908;47.446;13.900;2022-07-09T14:23:30;1.60;;;1.00;;
9737;SDS011;4908;47.446;13.900;2022-07-09T14:25:57;0.80;;;0.80;;
9737;SDS011;4908;47.446;13.900;2022-07-09T14:28:24;1.10;;;0.90;;
9737;SDS011;4908;47.446;13.900;2022-07-09T14:30:51;1.63;;;0.80;;
9737;SDS011;4908;47.446;13.900;2022-07-09T14:33:19;0.97;;;0.80;;
9737;SDS011;4908;47.446;13.900;2022-07-09T14:35:46;2.73;;;0.73;;
9737;SDS011;4908;47.446;13.900;2022-07-09T14:38:13;0.80;;;0.80;;
9737;SDS011;4908;47.446;13.900;2022-07-09T14:40:40;2.83;;;0.90;;
9737;SDS011;4908;47.446;13.900;2022-07-09T14:43:07;3.50;;;1.07;;
9737;SDS011;4908;47.446;13.900;2022-07-09T14:45:33;3.50;;;0.90;;
9737;SDS011;4908;47.446;13.900;2022-07-09T14:48:00;1.03;;;0.90;;
9737;SDS011;4908;47.446;13.900;2022-07-09T14:50:30;2.67;;;0.93;;
9737;SDS011;4908;47.446;13.900;2022-07-09T14:52:56;1.80;;;1.00;;
9737;SDS011;4908;47.446;13.900;2022-07-09T14:55:24;2.63;;;0.83;;
9737;SDS011;4908;47.446;13.900;2022-07-09T14:57:50;4.23;;;1.27;;
9737;SDS011;4908;47.446;13.900;2022-07-09T15:00:17;1.17;;;0.73;;
9737;SDS011;4908;47.446;13.900;2022-07-09T15:02:45;0.80;;;0.80;;
9737;SDS011;4908;47.446;13.900;2022-07-09T15:05:12;2.10;;;0.67;;